Time;durP1;ratioP1;P1;durP2;ratioP2;P2;SDS_P1;SDS_P2;PMS_P1;PMS_P2;Temp;Humidity;BMP_temperature;BMP_pressure;BME280_temperature;BME280_humidity;BME280_pressure;Samples;Min_cycle;Max_cycle;Signal;HPM_P1;HPM_P2
2022/03/21 00:00:00;;;;;;;13.70;6.27;;;5.50;58.80;;;;;;5012829;28;20407;-68
2022/03/21 00:02:26;;;;;;;8.97;5.03;;;5.40;58.60;;;;;;5015471;28;20430;-68
2022/03/21 00:04:51;;;;;;;9.37;5.30;;;5.40;58.60;;;;;;5015400;28;20171;-69
2022/03/21 00:07:18;;;;;;;5.40;4.77;;;5.40;58.90;;;;;;5015578;28;20215;-68
2022/03/21 00:09:43;;;;;;;5.67;5.20;;;5.30;58.80;;;;;;5015483;28;20212;-69
2022/03/21 00:12:09;;;;;;;7.40;5.63;;;5.40;59.00;;;;;;5015109;28;20438;-68
2022/03/21 00:14:34;;;;;;;5.80;5.20;;;5.30;59.20;;;;;;5015150;28;20171;-68
2022/03/21 00:17:00;;;;;;;8.43;4.60;;;5.20;59.40;;;;;;5015189;28;20283;-68
2022/03/21 00:19:26;;;;;;;8.07;5.37;;;5.20;59.50;;;;;;5015302;28;20180;-68
2022/03/21 00:21:51;;;;;;;10.70;5.57;;;5.20;59.80;;;;;;5014991;28;20176;-68
2022/03/21 00:24:17;;;;;;;5.10;4.30;;;5.20;59.80;;;;;;5015039;28;20498;-68
2022/03/21 00:26:42;;;;;;;6.77;4.40;;;5.10;59.70;;;;;;5014791;28;20203;-68
2022/03/21 00:29:09;;;;;;;7.83;5.67;;;5.10;60.00;;;;;;5014800;28;20247;-68
2022/03/21 00:31:36;;;;;;;7.40;4.47;;;5.10;60.00;;;;;;5015264;28;20550;-68
2022/03/21 00:34:02;;;;;;;5.33;4.40;;;5.10;60.20;;;;;;5014940;28;20905;-68
2022/03/21 00:36:27;;;;;;;5.60;4.30;;;5.00;60.50;;;;;;5014794;28;20457;-68
2022/03/21 00:38:53;;;;;;;9.13;5.67;;;5.00;60.50;;;;;;5014755;28;20536;-68
2022/03/21 00:41:19;;;;;;;9.23;5.30;;;5.00;60.50;;;;;;5015186;28;20173;-68
2022/03/21 00:43:45;;;;;;;10.37;4.60;;;4.90;60.90;;;;;;5015027;28;20168;-68
2022/03/21 00:46:11;;;;;;;6.70;5.13;;;4.90;60.80;;;;;;5014899;28;20415;-68
2022/03/21 00:48:37;;;;;;;7.33;4.67;;;4.90;60.70;;;;;;5014887;28;20682;-68
2022/03/21 00:51:02;;;;;;;10.30;4.37;;;4.90;60.90;;;;;;5014871;28;20399;-68
2022/03/21 00:53:28;;;;;;;9.23;4.30;;;4.80;60.90;;;;;;5014944;28;20631;-68
2022/03/21 00:55:53;;;;;;;5.33;4.70;;;4.80;61.30;;;;;;5014715;28;20192;-68
2022/03/21 00:58:19;;;;;;;7.33;5.60;;;4.80;61.50;;;;;;5014522;28;20220;-68
2022/03/21 01:00:44;;;;;;;14.13;5.60;;;4.70;61.70;;;;;;5014695;28;20182;-68
2022/03/21 01:03:10;;;;;;;5.33;4.60;;;4.70;61.60;;;;;;5014486;28;20177;-68
2022/03/21 01:05:37;;;;;;;9.40;5.23;;;4.70;61.80;;;;;;5014624;28;20172;-68
2022/03/21 01:08:03;;;;;;;4.67;3.83;;;4.70;61.90;;;;;;5014078;28;20674;-68
2022/03/21 01:10:29;;;;;;;6.20;4.10;;;4.60;62.10;;;;;;5014438;28;20399;-67
2022/03/21 01:12:56;;;;;;;7.40;4.70;;;4.50;62.30;;;;;;5013151;28;20416;-68
2022/03/21 01:15:24;;;;;;;8.37;4.17;;;4.50;62.80;;;;;;4996598;28;20407;-68
2022/03/21 01:17:51;;;;;;;9.17;5.70;;;4.40;63.10;;;;;;5013978;28;20435;-67
2022/03/21 01:20:18;;;;;;;5.20;4.70;;;4.40;63.20;;;;;;5014361;28;20402;-68
2022/03/21 01:22:44;;;;;;;6.37;5.40;;;4.40;63.40;;;;;;5014118;28;20414;-68
2022/03/21 01:25:11;;;;;;;7.60;4.40;;;4.40;64.00;;;;;;5014005;28;20898;-68
2022/03/21 01:27:37;;;;;;;5.30;4.80;;;4.30;63.70;;;;;;5013709;28;20459;-68
2022/03/21 01:30:10;;;;;;;6.60;5.70;;;4.30;64.00;;;;;;5013971;28;20415;-66
2022/03/21 01:32:37;;;;;;;7.67;5.10;;;4.20;63.90;;;;;;5013808;28;20423;-68
2022/03/21 01:35:03;;;;;;;7.03;5.67;;;4.20;64.00;;;;;;5014014;28;20755;-68
2022/03/21 01:37:29;;;;;;;4.87;4.47;;;4.20;64.10;;;;;;5013630;28;20447;-68
2022/03/21 01:39:54;;;;;;;8.33;5.97;;;4.20;64.50;;;;;;5013864;28;20553;-68
2022/03/21 01:42:20;;;;;;;8.33;4.43;;;4.20;64.30;;;;;;4996167;28;20192;-68
2022/03/21 01:44:50;;;;;;;8.03;5.77;;;4.10;64.70;;;;;;5013713;28;20642;-68
2022/03/21 01:47:15;;;;;;;7.67;4.30;;;4.10;65.80;;;;;;5013797;28;20327;-68
2022/03/21 01:49:41;;;;;;;6.10;4.77;;;4.00;64.80;;;;;;5013710;28;20439;-68
2022/03/21 01:52:06;;;;;;;8.80;4.97;;;4.00;65.00;;;;;;5013350;28;20517;-69
2022/03/21 01:57:17;;;;;;;4.93;4.53;;;4.10;64.80;;;;;;5013327;28;20223;-68
2022/03/21 01:59:42;;;;;;;9.33;4.70;;;4.00;64.90;;;;;;5013275;28;20901;-68
2022/03/21 02:02:08;;;;;;;8.23;5.40;;;4.00;65.00;;;;;;5013259;28;20426;-68
2022/03/21 02:04:34;;;;;;;7.70;5.57;;;4.00;65.00;;;;;;5013019;28;20588;-66
2022/03/21 02:07:01;;;;;;;4.87;4.30;;;3.90;65.00;;;;;;5013551;28;20234;-67
2022/03/21 02:09:28;;;;;;;9.67;5.43;;;3.90;65.20;;;;;;5013169;28;20897;-67
2022/03/21 02:11:55;;;;;;;7.87;4.90;;;3.90;66.00;;;;;;5013061;28;20403;-67
2022/03/21 02:14:21;;;;;;;6.23;4.60;;;3.90;65.70;;;;;;5012893;28;20442;-67
2022/03/21 02:16:46;;;;;;;7.67;5.53;;;3.90;65.50;;;;;;5012676;28;20426;-67
2022/03/21 02:19:14;;;;;;;5.50;4.90;;;3.80;65.50;;;;;;5013058;28;20466;-68
2022/03/21 02:22:11;;;;;;;12.73;6.20;;;3.80;66.00;;;;;;5012827;28;20181;-67
2022/03/21 02:24:52;;;;;;;4.87;4.00;;;3.80;66.00;;;;;;5012866;28;20831;-67
2022/03/21 02:27:18;;;;;;;6.77;4.77;;;3.80;66.10;;;;;;5013222;28;20833;-67
2022/03/21 02:29:47;;;;;;;9.80;5.73;;;3.80;66.30;;;;;;5012547;28;20472;-67
2022/03/21 02:32:13;;;;;;;5.40;4.47;;;3.70;66.10;;;;;;5012713;28;20414;-67
2022/03/21 02:34:40;;;;;;;9.83;7.47;;;3.70;66.20;;;;;;5012566;28;20399;-67
2022/03/21 02:37:12;;;;;;;7.90;4.90;;;3.70;66.50;;;;;;5012682;28;20198;-67
2022/03/21 02:39:39;;;;;;;12.90;6.53;;;3.60;66.60;;;;;;5012517;28;20466;-67
2022/03/21 02:42:05;;;;;;;4.47;4.07;;;3.60;66.70;;;;;;5012349;28;20408;-67
2022/03/21 02:44:35;;;;;;;9.87;4.73;;;3.50;66.90;;;;;;5012780;28;20407;-67
2022/03/21 02:47:01;;;;;;;6.53;5.17;;;3.50;67.10;;;;;;5012744;28;20900;-67
2022/03/21 02:49:27;;;;;;;5.07;4.20;;;3.50;67.50;;;;;;5013165;28;20435;-67
2022/03/21 02:51:54;;;;;;;6.70;4.23;;;3.40;67.60;;;;;;5012658;28;20418;-67
2022/03/21 02:54:22;;;;;;;6.87;4.30;;;3.40;67.70;;;;;;5010881;28;20400;-67
2022/03/21 02:56:48;;;;;;;7.60;5.17;;;3.30;67.60;;;;;;5012127;28;20427;-67
2022/03/21 02:59:16;;;;;;;10.20;4.70;;;3.30;67.60;;;;;;5012231;28;20929;-67
2022/03/21 03:01:42;;;;;;;7.40;4.97;;;3.30;67.80;;;;;;5012053;28;20192;-67
2022/03/21 03:04:08;;;;;;;6.40;5.63;;;3.20;67.90;;;;;;5011939;28;20429;-67
2022/03/21 03:06:34;;;;;;;9.97;5.40;;;3.20;68.10;;;;;;5011928;28;20458;-68
2022/03/21 03:08:59;;;;;;;7.93;5.60;;;3.20;68.40;;;;;;5011901;28;20651;-67
2022/03/21 03:11:25;;;;;;;5.70;4.90;;;3.20;68.10;;;;;;5011738;28;20403;-67
2022/03/21 03:13:50;;;;;;;7.83;5.50;;;3.20;68.20;;;;;;5011872;28;20608;-67
2022/03/21 03:16:16;;;;;;;8.30;5.77;;;3.10;68.30;;;;;;5011502;28;20240;-66
2022/03/21 03:18:44;;;;;;;10.60;6.33;;;3.10;68.60;;;;;;5011816;28;20259;-67
2022/03/21 03:21:10;;;;;;;8.57;4.60;;;3.10;68.80;;;;;;5011675;28;20249;-68
2022/03/21 03:23:40;;;;;;;6.13;5.53;;;3.00;68.80;;;;;;5011979;28;20964;-68
2022/03/21 03:26:05;;;;;;;11.23;6.10;;;3.00;68.70;;;;;;5011746;28;20842;-67
2022/03/21 03:28:32;;;;;;;7.83;5.50;;;3.00;68.90;;;;;;5011540;28;20447;-67
2022/03/21 03:31:01;;;;;;;5.83;4.30;;;3.00;69.20;;;;;;5011835;28;20670;-67
2022/03/21 03:33:27;;;;;;;15.57;6.83;;;3.00;69.40;;;;;;5011533;28;20403;-68
2022/03/21 03:35:53;;;;;;;7.57;4.83;;;3.00;69.40;;;;;;5010941;28;20403;-67
2022/03/21 03:38:18;;;;;;;8.77;5.00;;;3.00;69.50;;;;;;5011676;28;20443;-68
2022/03/21 03:40:44;;;;;;;8.80;5.07;;;2.90;69.60;;;;;;5011649;28;20206;-67
2022/03/21 03:43:11;;;;;;;9.00;6.33;;;2.90;69.90;;;;;;5011602;28;20184;-67
2022/03/21 03:45:38;;;;;;;7.70;6.43;;;2.90;69.90;;;;;;5011606;28;20407;-68
2022/03/21 03:48:04;;;;;;;10.17;6.80;;;2.90;70.10;;;;;;5011475;28;20777;-67
2022/03/21 03:50:29;;;;;;;7.63;5.37;;;2.90;70.10;;;;;;5011514;28;20416;-67
2022/03/21 03:52:55;;;;;;;6.20;5.60;;;2.90;70.20;;;;;;5011595;28;20494;-68
2022/03/21 03:55:20;;;;;;;9.07;6.90;;;2.90;70.20;;;;;;5011476;28;20506;-67
2022/03/21 03:57:47;;;;;;;8.93;5.50;;;2.90;70.20;;;;;;5011397;28;20266;-66
2022/03/21 04:00:14;;;;;;;8.23;5.93;;;2.90;70.20;;;;;;5011265;28;20246;-66
2022/03/21 04:05:25;;;;;;;7.33;6.00;;;2.80;70.50;;;;;;5011589;28;20421;-66
2022/03/21 04:07:51;;;;;;;8.37;6.17;;;2.80;70.80;;;;;;5010968;28;20574;-67
2022/03/21 04:10:17;;;;;;;15.67;5.97;;;2.70;70.70;;;;;;5011186;28;20446;-67
2022/03/21 04:12:43;;;;;;;9.77;6.47;;;2.70;71.10;;;;;;4993656;28;20411;-67
2022/03/21 04:15:09;;;;;;;7.97;5.77;;;2.70;71.20;;;;;;5010942;28;20172;-66
2022/03/21 04:17:35;;;;;;;9.37;5.30;;;2.60;71.20;;;;;;5011118;28;20442;-66
2022/03/21 04:20:05;;;;;;;8.70;5.77;;;2.60;71.10;;;;;;5011319;28;20407;-66
2022/03/21 04:22:30;;;;;;;7.60;5.67;;;2.70;71.20;;;;;;5010976;28;20423;-66
2022/03/21 04:24:56;;;;;;;8.20;6.17;;;2.60;71.20;;;;;;5011501;28;20407;-66
2022/03/21 04:27:22;;;;;;;10.43;6.83;;;2.60;71.10;;;;;;5010969;28;20205;-66
2022/03/21 04:29:48;;;;;;;8.70;4.73;;;2.60;71.10;;;;;;5011076;28;20499;-67
2022/03/21 04:32:13;;;;;;;6.53;4.57;;;2.60;71.00;;;;;;5010976;28;20177;-66
2022/03/21 04:34:38;;;;;;;10.40;7.47;;;2.60;70.90;;;;;;5011055;28;20678;-66
2022/03/21 04:37:04;;;;;;;9.50;6.13;;;2.60;70.90;;;;;;5010952;28;20541;-66
2022/03/21 04:39:29;;;;;;;9.87;6.00;;;2.60;70.90;;;;;;5011148;28;20342;-66
2022/03/21 04:41:55;;;;;;;6.47;4.50;;;2.60;71.00;;;;;;5011038;28;20631;-67
2022/03/21 04:44:20;;;;;;;12.80;6.97;;;2.60;70.90;;;;;;5010954;28;20180;-67
2022/03/21 04:46:46;;;;;;;9.30;6.60;;;2.60;70.80;;;;;;5013154;28;20238;-67
2022/03/21 04:49:11;;;;;;;11.07;7.10;;;2.60;70.50;;;;;;5014673;28;20545;-67
2022/03/21 04:51:37;;;;;;;7.53;3.70;;;2.60;70.50;;;;;;5014382;28;20173;-67
2022/03/21 04:54:02;;;;;;;7.43;6.33;;;2.60;70.70;;;;;;4996679;28;20184;-67
2022/03/21 04:56:28;;;;;;;7.67;6.87;;;2.60;70.70;;;;;;5014218;28;20168;-67
2022/03/21 04:58:53;;;;;;;15.67;6.27;;;2.60;71.00;;;;;;5014184;28;20217;-67
2022/03/21 05:01:19;;;;;;;8.60;5.23;;;2.50;70.70;;;;;;5014460;28;20210;-67
2022/03/21 05:03:44;;;;;;;11.53;5.80;;;2.50;70.70;;;;;;5014200;28;20175;-68
2022/03/21 05:06:10;;;;;;;13.93;6.77;;;2.50;71.20;;;;;;5014123;28;20266;-66
2022/03/21 05:08:35;;;;;;;5.43;4.93;;;2.50;71.00;;;;;;5014134;28;20196;-66
2022/03/21 05:11:01;;;;;;;8.57;6.00;;;2.50;71.10;;;;;;5014131;28;20485;-67
2022/03/21 05:13:26;;;;;;;9.40;6.17;;;2.50;71.50;;;;;;5013888;28;20164;-66
2022/03/21 05:15:52;;;;;;;5.67;4.40;;;2.50;71.40;;;;;;5013912;28;20265;-66
2022/03/21 05:18:17;;;;;;;6.30;5.43;;;2.50;71.50;;;;;;5013871;28;20200;-66
2022/03/21 05:20:44;;;;;;;6.17;5.57;;;2.50;71.50;;;;;;5013861;28;20206;-66
2022/03/21 05:31:27;;;;;;;10.67;5.73;;;2.50;71.70;;;;;;4985675;28;20412;-67
2022/03/21 05:36:36;;;;;;;10.70;6.03;;;2.60;71.40;;;;;;5013494;28;20191;-67
2022/03/21 05:39:03;;;;;;;9.97;4.70;;;2.60;71.10;;;;;;5013493;28;20407;-66
2022/03/21 05:41:28;;;;;;;9.87;5.00;;;2.60;71.10;;;;;;5013351;28;20172;-67
2022/03/21 05:43:54;;;;;;;8.00;4.17;;;2.70;71.00;;;;;;4995847;28;20411;-67
2022/03/21 05:46:19;;;;;;;10.07;5.90;;;2.70;70.80;;;;;;5013263;28;20612;-66
2022/03/21 05:48:51;;;;;;;8.00;5.57;;;2.80;71.00;;;;;;5013450;28;20635;-66
2022/03/21 05:51:18;;;;;;;21.50;6.07;;;2.80;70.50;;;;;;5013501;28;20252;-66
2022/03/21 05:53:45;;;;;;;10.87;6.70;;;2.90;71.00;;;;;;5013051;28;20940;-66
2022/03/21 05:56:11;;;;;;;11.17;5.53;;;2.90;70.20;;;;;;5013307;28;20977;-66
2022/03/21 05:58:36;;;;;;;10.73;4.80;;;3.00;70.20;;;;;;5012551;28;20439;-67
2022/03/21 06:01:03;;;;;;;5.57;4.67;;;3.10;70.10;;;;;;5013228;28;20211;-67
2022/03/21 06:03:28;;;;;;;6.93;5.73;;;3.20;69.50;;;;;;5012957;28;20169;-67
2022/03/21 06:05:55;;;;;;;8.20;5.50;;;3.30;69.10;;;;;;4995298;28;20956;-67
2022/03/21 06:08:22;;;;;;;9.67;5.13;;;3.70;68.80;;;;;;5012771;28;20752;-67
2022/03/21 06:10:47;;;;;;;10.30;6.90;;;4.10;68.00;;;;;;5013148;28;20403;-67
2022/03/21 06:13:14;;;;;;;9.97;5.53;;;4.50;66.10;;;;;;4995357;28;20426;-67
2022/03/21 06:15:40;;;;;;;7.63;6.23;;;4.90;65.10;;;;;;5012857;28;20473;-67
2022/03/21 06:18:12;;;;;;;10.07;6.20;;;5.40;63.70;;;;;;5012906;28;20458;-67
2022/03/21 06:20:39;;;;;;;9.23;5.30;;;5.60;62.40;;;;;;5013740;28;20844;-67
2022/03/21 06:23:05;;;;;;;11.23;5.73;;;5.60;62.50;;;;;;5013028;28;20411;-67
2022/03/21 06:25:31;;;;;;;13.13;6.53;;;5.80;61.80;;;;;;5013469;28;20416;-67
2022/03/21 06:27:56;;;;;;;9.13;6.10;;;6.00;61.10;;;;;;5013407;28;20936;-67
2022/03/21 06:30:22;;;;;;;15.37;7.30;;;5.90;60.40;;;;;;5013294;28;20631;-67
2022/03/21 06:32:48;;;;;;;11.50;6.87;;;6.20;59.90;;;;;;5012595;28;20164;-67
2022/03/21 06:35:13;;;;;;;8.60;6.60;;;6.70;60.20;;;;;;5012855;28;20414;-67
2022/03/21 06:37:40;;;;;;;9.77;5.83;;;7.30;59.30;;;;;;5012920;28;20201;-67
2022/03/21 06:40:07;;;;;;;9.93;5.63;;;7.00;58.50;;;;;;5013411;28;20651;-67
2022/03/21 06:42:33;;;;;;;9.30;4.87;;;7.30;58.50;;;;;;5013000;28;20458;-67
2022/03/21 06:45:01;;;;;;;9.53;6.70;;;7.50;57.80;;;;;;5012290;28;20448;-67
2022/03/21 06:47:27;;;;;;;15.07;5.87;;;7.60;57.50;;;;;;5012110;28;20287;-68
2022/03/21 06:49:52;;;;;;;7.20;5.13;;;7.80;57.40;;;;;;5012677;28;20496;-67
2022/03/21 06:52:18;;;;;;;10.40;5.37;;;7.40;56.60;;;;;;5012287;28;20174;-68
2022/03/21 06:54:48;;;;;;;7.10;5.40;;;7.90;57.80;;;;;;5012181;28;20243;-67
2022/03/21 06:57:14;;;;;;;11.10;6.80;;;8.50;56.10;;;;;;5012296;28;20848;-68
2022/03/21 06:59:40;;;;;;;10.30;6.70;;;7.90;55.70;;;;;;5012104;28;20422;-67
2022/03/21 07:02:06;;;;;;;12.23;5.70;;;7.80;56.50;;;;;;5012307;28;20255;-68
2022/03/21 07:04:32;;;;;;;10.23;6.70;;;8.20;55.80;;;;;;5010771;28;20459;-68
2022/03/21 07:06:57;;;;;;;11.23;6.00;;;8.60;57.40;;;;;;4989810;28;20869;-67
2022/03/21 07:09:26;;;;;;;8.60;5.57;;;9.00;55.10;;;;;;5004533;28;20172;-67
2022/03/21 07:11:52;;;;;;;10.33;6.10;;;9.10;54.60;;;;;;5012258;28;20168;-69
2022/03/21 07:14:19;;;;;;;8.70;6.60;;;9.40;53.40;;;;;;5005270;28;20502;-69
2022/03/21 07:16:44;;;;;;;9.90;6.27;;;9.60;53.40;;;;;;5012221;28;20215;-68
2022/03/21 07:19:10;;;;;;;11.03;6.10;;;8.60;52.90;;;;;;5012131;28;20959;-67
2022/03/21 07:21:36;;;;;;;7.40;5.63;;;9.60;53.00;;;;;;5005322;28;20573;-68
2022/03/21 07:24:01;;;;;;;10.40;5.93;;;9.30;53.10;;;;;;5012108;28;20184;-68
2022/03/21 07:26:27;;;;;;;8.90;5.53;;;10.30;51.40;;;;;;5012041;28;20415;-68
2022/03/21 07:28:52;;;;;;;7.77;5.97;;;9.70;51.60;;;;;;5012104;28;20290;-68
2022/03/21 07:31:18;;;;;;;7.03;5.50;;;10.50;50.10;;;;;;5011952;28;20196;-69
2022/03/21 07:33:43;;;;;;;11.70;6.47;;;10.80;48.80;;;;;;5012077;28;20250;-68
2022/03/21 07:36:09;;;;;;;6.67;5.90;;;11.00;48.30;;;;;;4995740;28;20181;-67
2022/03/21 07:38:36;;;;;;;6.13;4.90;;;11.50;48.90;;;;;;4992301;28;20188;-68
2022/03/21 07:41:07;;;;;;;10.50;6.07;;;11.70;47.50;;;;;;4992362;28;20784;-66
2022/03/21 07:43:36;;;;;;;7.00;5.43;;;11.40;46.90;;;;;;4990451;28;20507;-67
2022/03/21 07:48:46;;;;;;;7.67;5.53;;;12.40;46.30;;;;;;4992094;28;20551;-66
2022/03/21 07:51:11;;;;;;;8.23;6.00;;;11.60;46.00;;;;;;4992099;28;20940;-67
2022/03/21 07:53:38;;;;;;;6.60;5.33;;;11.70;46.50;;;;;;4992006;28;20602;-67
2022/03/21 07:56:04;;;;;;;7.90;5.53;;;12.40;45.00;;;;;;4991780;28;20548;-67
2022/03/21 07:58:31;;;;;;;6.53;5.80;;;12.60;45.70;;;;;;4992220;28;20437;-67
2022/03/21 08:00:59;;;;;;;7.33;5.50;;;12.50;44.60;;;;;;4992112;28;20419;-66
2022/03/21 08:03:25;;;;;;;8.27;6.30;;;12.50;44.30;;;;;;4991826;28;20414;-68
2022/03/21 08:05:52;;;;;;;7.70;5.70;;;12.80;43.50;;;;;;4991936;28;20476;-68
2022/03/21 08:08:20;;;;;;;8.07;5.50;;;11.80;44.40;;;;;;4992336;28;20225;-66
2022/03/21 08:10:46;;;;;;;6.70;5.83;;;11.30;45.00;;;;;;4991887;28;20425;-67
2022/03/21 08:13:16;;;;;;;6.83;5.03;;;11.90;45.00;;;;;;4992215;28;20501;-68
2022/03/21 08:15:43;;;;;;;7.90;5.23;;;11.30;45.70;;;;;;4991875;28;20429;-66
2022/03/21 08:18:10;;;;;;;7.90;5.40;;;12.50;44.80;;;;;;4974436;28;20481;-67
2022/03/21 08:20:38;;;;;;;10.00;5.63;;;11.90;44.80;;;;;;4991177;28;20426;-67
2022/03/21 08:23:06;;;;;;;6.30;4.83;;;12.40;44.40;;;;;;4995404;28;20412;-67
2022/03/21 08:25:32;;;;;;;7.20;5.40;;;12.40;44.00;;;;;;4995713;28;20412;-67
2022/03/21 08:27:58;;;;;;;5.67;4.80;;;12.40;43.70;;;;;;4995688;28;20473;-66
2022/03/21 08:30:24;;;;;;;7.53;5.43;;;11.50;42.90;;;;;;4995404;28;20504;-68
2022/03/21 08:32:50;;;;;;;6.47;4.60;;;11.30;43.90;;;;;;4995420;28;20264;-68
2022/03/21 08:35:17;;;;;;;8.10;4.27;;;12.20;44.40;;;;;;4995039;28;20598;-66
2022/03/21 08:37:43;;;;;;;8.50;5.20;;;11.90;43.00;;;;;;4994841;28;20483;-68
2022/03/21 08:40:10;;;;;;;4.93;3.90;;;11.70;44.00;;;;;;4995041;28;20414;-67
2022/03/21 08:42:36;;;;;;;6.23;4.47;;;12.40;44.60;;;;;;4995168;28;20487;-67
2022/03/21 08:45:02;;;;;;;5.93;4.70;;;12.60;44.30;;;;;;4995174;28;20410;-66
2022/03/21 08:47:28;;;;;;;6.57;4.63;;;13.30;42.50;;;;;;4994851;28;20458;-66
2022/03/21 08:49:53;;;;;;;5.37;4.43;;;13.90;41.70;;;;;;4994750;28;20418;-67
2022/03/21 08:52:19;;;;;;;8.10;4.70;;;14.00;41.80;;;;;;4994799;28;20254;-67
2022/03/21 08:54:45;;;;;;;6.97;4.73;;;13.70;41.40;;;;;;4994977;28;20281;-68
2022/03/21 08:57:11;;;;;;;6.47;4.90;;;12.50;42.20;;;;;;4994751;28;20956;-66
2022/03/21 08:59:37;;;;;;;8.10;4.30;;;13.10;42.10;;;;;;4995226;28;20417;-68
2022/03/21 09:02:03;;;;;;;6.63;3.67;;;12.50;41.00;;;;;;4994745;28;20183;-67
2022/03/21 09:04:29;;;;;;;8.30;4.70;;;12.60;42.00;;;;;;4994412;28;20410;-68
2022/03/21 09:06:55;;;;;;;7.17;4.43;;;13.20;41.90;;;;;;4994337;28;20476;-67
2022/03/21 09:09:21;;;;;;;4.83;3.97;;;13.10;41.10;;;;;;4994594;28;20638;-67
2022/03/21 09:11:47;;;;;;;5.70;4.50;;;12.60;42.20;;;;;;4994647;28;20196;-67
2022/03/21 09:14:12;;;;;;;6.57;4.10;;;12.90;41.30;;;;;;4994521;28;20173;-67
2022/03/21 09:16:39;;;;;;;7.60;5.07;;;12.90;40.30;;;;;;4994311;28;20433;-67
2022/03/21 09:19:05;;;;;;;5.13;3.63;;;13.00;39.80;;;;;;4994489;28;20646;-67
2022/03/21 09:21:31;;;;;;;6.73;4.17;;;13.00;39.50;;;;;;4994179;28;20918;-67
2022/03/21 09:23:56;;;;;;;5.27;4.77;;;13.00;39.10;;;;;;4994190;28;20503;-68
2022/03/21 09:26:22;;;;;;;4.60;3.90;;;12.50;39.40;;;;;;4993995;28;20255;-67
2022/03/21 09:28:48;;;;;;;3.90;3.60;;;12.30;40.60;;;;;;4994056;28;20213;-68
2022/03/21 09:31:15;;;;;;;4.37;3.97;;;12.90;40.20;;;;;;4993920;28;20836;-68
2022/03/21 09:33:41;;;;;;;5.57;4.20;;;13.10;40.30;;;;;;4992767;28;20759;-68
2022/03/21 09:36:07;;;;;;;6.80;4.30;;;13.00;39.40;;;;;;4993780;28;20447;-67
2022/03/21 09:38:34;;;;;;;5.67;4.30;;;13.10;39.70;;;;;;4994130;28;20435;-67
2022/03/21 09:41:01;;;;;;;8.87;6.10;;;12.40;39.20;;;;;;4994313;28;20479;-69
2022/03/21 09:43:29;;;;;;;5.30;4.80;;;12.70;40.70;;;;;;4994551;28;20452;-67
2022/03/21 09:45:58;;;;;;;14.10;9.00;;;13.00;40.60;;;;;;4994493;28;20421;-66
2022/03/21 09:48:26;;;;;;;14.60;9.03;;;12.70;43.60;;;;;;4993656;28;20456;-66
2022/03/21 09:50:52;;;;;;;7.63;6.40;;;13.40;44.60;;;;;;5001455;28;20432;-67
2022/03/21 09:53:18;;;;;;;6.63;4.57;;;13.50;39.90;;;;;;5008555;28;20901;-66
2022/03/21 09:55:44;;;;;;;5.07;3.90;;;13.00;38.80;;;;;;4998318;28;20830;-68
2022/03/21 09:58:11;;;;;;;4.93;4.20;;;12.60;39.50;;;;;;4993738;28;20532;-66
2022/03/21 10:00:38;;;;;;;6.60;4.43;;;12.60;39.90;;;;;;4994744;28;20418;-67
2022/03/21 10:03:04;;;;;;;6.60;4.27;;;12.40;40.60;;;;;;4993375;28;20431;-66
2022/03/21 10:05:41;;;;;;;8.07;4.07;;;12.00;40.20;;;;;;5008395;28;20803;-67
2022/03/21 10:08:21;;;;;;;4.50;4.00;;;11.90;40.90;;;;;;5002923;28;20487;-67
2022/03/21 10:10:58;;;;;;;7.20;5.23;;;11.80;41.20;;;;;;4993921;28;20407;-68
2022/03/21 10:13:32;;;;;;;7.17;3.60;;;11.80;41.40;;;;;;4997919;28;20418;-68
2022/03/21 10:16:08;;;;;;;8.53;4.30;;;11.60;41.40;;;;;;5013675;28;20443;-68
2022/03/21 10:18:34;;;;;;;5.00;4.33;;;11.40;41.50;;;;;;5013307;28;20509;-68
2022/03/21 10:21:14;;;;;;;6.77;4.90;;;11.20;41.70;;;;;;5013284;28;20407;-69
2022/03/21 10:23:40;;;;;;;4.23;3.83;;;11.30;41.80;;;;;;5013121;28;20427;-68
2022/03/21 10:26:31;;;;;;;5.30;4.43;;;11.00;41.70;;;;;;5013245;28;20430;-68
2022/03/21 10:29:00;;;;;;;5.47;4.00;;;11.00;41.80;;;;;;5012871;28;20442;-68
2022/03/21 10:31:42;;;;;;;7.70;4.50;;;11.00;42.00;;;;;;5012923;28;20410;-68
2022/03/21 10:34:10;;;;;;;4.40;3.27;;;10.70;42.20;;;;;;5012903;28;20404;-68
2022/03/21 10:36:56;;;;;;;3.40;3.10;;;11.10;42.80;;;;;;5012877;28;20423;-69
2022/03/21 10:39:21;;;;;;;4.67;3.27;;;10.90;41.30;;;;;;5012597;28;21005;-67
2022/03/21 10:41:47;;;;;;;4.00;2.70;;;10.90;41.30;;;;;;5012286;28;20490;-67
2022/03/21 10:44:12;;;;;;;4.03;2.93;;;11.00;41.20;;;;;;5012187;28;20528;-67
2022/03/21 10:46:41;;;;;;;3.17;2.87;;;11.00;41.00;;;;;;5012015;28;20682;-69
2022/03/21 10:49:09;;;;;;;4.40;3.70;;;11.10;41.50;;;;;;5012307;28;20647;-69
2022/03/21 10:51:53;;;;;;;6.97;3.27;;;11.10;41.30;;;;;;5012369;28;20882;-67
2022/03/21 10:54:39;;;;;;;6.40;3.57;;;11.10;40.70;;;;;;5012384;28;20399;-68
2022/03/21 10:57:06;;;;;;;4.50;3.20;;;11.10;40.90;;;;;;5012122;28;20458;-68
2022/03/21 10:59:33;;;;;;;3.33;2.77;;;11.30;41.40;;;;;;5011888;28;20416;-67
2022/03/21 11:02:17;;;;;;;5.67;3.73;;;11.20;41.20;;;;;;5011906;28;20713;-67
2022/03/21 11:04:44;;;;;;;6.47;3.70;;;11.30;41.30;;;;;;5011947;28;20929;-67
2022/03/21 11:07:13;;;;;;;4.67;3.90;;;11.30;40.90;;;;;;5012370;28;20903;-68
2022/03/21 11:09:40;;;;;;;4.27;3.40;;;11.10;41.10;;;;;;5012818;28;20403;-68
2022/03/21 11:12:07;;;;;;;4.57;3.53;;;11.30;41.40;;;;;;5012343;28;20412;-67
2022/03/21 11:14:39;;;;;;;5.53;3.37;;;11.40;41.20;;;;;;5012098;28;20434;-68
2022/03/21 11:17:06;;;;;;;4.97;3.87;;;11.20;41.30;;;;;;5012065;28;20423;-68
2022/03/21 11:19:32;;;;;;;9.60;4.10;;;11.20;41.70;;;;;;5012292;28;20411;-68
2022/03/21 11:22:00;;;;;;;3.77;3.30;;;11.20;41.70;;;;;;5012040;28;20411;-68
2022/03/21 11:24:27;;;;;;;4.63;3.60;;;11.40;41.50;;;;;;5012034;28;20498;-68
2022/03/21 11:27:34;;;;;;;3.50;2.83;;;11.60;41.70;;;;;;5011633;28;20478;-68
2022/03/21 11:30:14;;;;;;;3.97;3.57;;;11.60;41.10;;;;;;5011694;28;20430;-68
2022/03/21 11:33:05;;;;;;;5.87;3.80;;;11.50;40.90;;;;;;5011632;28;20888;-67
2022/03/21 11:35:33;;;;;;;6.60;4.50;;;11.50;40.90;;;;;;5011475;28;20411;-68
2022/03/21 11:38:28;;;;;;;5.10;3.80;;;11.50;41.20;;;;;;5011638;28;20909;-68
2022/03/21 11:41:22;;;;;;;4.07;3.50;;;11.60;40.60;;;;;;5011312;28;20418;-67
2022/03/21 11:44:14;;;;;;;5.37;3.83;;;11.70;40.80;;;;;;5011571;28;20738;-68
2022/03/21 11:46:47;;;;;;;3.63;2.77;;;12.00;40.80;;;;;;5011464;28;20427;-68
2022/03/21 11:49:18;;;;;;;4.97;3.70;;;12.10;40.90;;;;;;5025055;28;20418;-68
2022/03/21 11:51:52;;;;;;;3.77;3.47;;;12.20;41.20;;;;;;5029372;28;20492;-68
2022/03/21 11:54:36;;;;;;;6.73;3.07;;;12.40;40.50;;;;;;5011742;28;20824;-68
2022/03/21 11:57:10;;;;;;;6.20;3.27;;;12.50;39.90;;;;;;5017427;28;20505;-68
2022/03/21 11:59:35;;;;;;;6.07;2.70;;;12.70;40.10;;;;;;5018055;28;20502;-68
2022/03/21 12:02:07;;;;;;;7.40;3.60;;;12.70;39.40;;;;;;5017693;28;20509;-66
2022/03/21 12:04:33;;;;;;;6.37;3.60;;;12.70;39.50;;;;;;5017915;28;20650;-68
2022/03/21 12:07:20;;;;;;;4.87;3.93;;;12.70;39.20;;;;;;5017687;28;20542;-69
2022/03/21 12:09:47;;;;;;;5.10;3.90;;;12.70;38.90;;;;;;5017747;28;20767;-67
2022/03/21 12:12:17;;;;;;;4.57;3.90;;;12.70;38.30;;;;;;5017606;28;20473;-69
2022/03/21 12:14:56;;;;;;;3.63;3.20;;;12.70;38.20;;;;;;5017345;28;20758;-66
2022/03/21 12:17:21;;;;;;;5.50;3.70;;;12.80;38.30;;;;;;5017560;28;20533;-69
2022/03/21 12:22:33;;;;;;;3.33;2.70;;;13.10;37.50;;;;;;5017555;28;20187;-67
2022/03/21 12:25:00;;;;;;;3.77;3.33;;;13.20;37.20;;;;;;5017490;28;20395;-67
2022/03/21 12:27:47;;;;;;;4.63;3.50;;;13.10;36.80;;;;;;5017614;28;20472;-69
2022/03/21 12:30:26;;;;;;;4.10;2.77;;;13.00;36.70;;;;;;5017665;28;20782;-67
2022/03/21 12:32:54;;;;;;;4.27;2.97;;;13.00;36.30;;;;;;5017576;28;20766;-69
2022/03/21 12:35:31;;;;;;;3.73;3.37;;;13.00;36.60;;;;;;5017549;28;20518;-67
2022/03/21 12:38:00;;;;;;;4.50;4.10;;;13.10;36.60;;;;;;5010410;28;20434;-69
2022/03/21 12:40:26;;;;;;;3.03;2.73;;;13.20;36.80;;;;;;5017721;28;20415;-67
2022/03/21 12:42:54;;;;;;;4.40;3.30;;;13.20;36.90;;;;;;5017554;28;20473;-67
2022/03/21 12:45:20;;;;;;;4.60;4.07;;;13.20;37.30;;;;;;5017832;28;20700;-67
2022/03/21 12:47:47;;;;;;;6.60;4.07;;;13.30;37.50;;;;;;5017311;28;20454;-67
2022/03/21 12:50:25;;;;;;;5.27;4.07;;;13.30;37.40;;;;;;5017395;28;20461;-67
2022/03/21 12:52:53;;;;;;;4.50;3.60;;;13.50;37.50;;;;;;5017038;28;20749;-67
2022/03/21 12:55:19;;;;;;;4.20;3.17;;;13.50;37.40;;;;;;5017295;28;20461;-67
2022/03/21 12:58:09;;;;;;;4.90;3.40;;;13.20;37.50;;;;;;5017452;28;20443;-67
2022/03/21 13:00:38;;;;;;;4.30;3.63;;;13.20;37.80;;;;;;4998233;28;20180;-68
2022/03/21 13:03:08;;;;;;;6.13;3.97;;;13.40;38.20;;;;;;4997876;28;20567;-67
2022/03/21 13:11:34;;;;;;;4.57;3.27;;;13.40;38.00;;;;;;4994664;28;20408;-68
2022/03/21 13:14:05;;;;;;;4.30;3.70;;;13.20;37.70;;;;;;5012777;28;20515;-67
2022/03/21 13:16:38;;;;;;;4.30;3.57;;;13.00;37.60;;;;;;5014275;28;20435;-68
2022/03/21 13:19:06;;;;;;;5.53;3.80;;;13.10;37.90;;;;;;5014116;28;20415;-68
2022/03/21 13:21:35;;;;;;;5.87;4.00;;;13.40;37.90;;;;;;5014492;28;20427;-68